Search for airport 
image banner adimage banner adimage banner ad
image banner ad

2IA9 - South 80 Field

Located in Crystal Lake, United States

ICAO - 2IA9, IATA -

Data provided by Airmate  

General information

Coordinates: N43°11'27" W93°46'15"
Elevation is 1210 feet MSL.
Magnetic variation is 04° East
View others Airports in Iowa

Operational data

Special qualification required
Current time UTC:
Current local time:
Weather at : KFXY - Forest City Muni ( 13 km )
METAR: KFXY 181735Z AUTO 00000KT 10SM CLR 30/10 A2988 RMK AO2
View NOTAMs / SUP AIP / TFR affecting this airport [VIEW]
Communications frequencies: [VIEW]

Runways:

RWY identifierQFULength (ft)Width (ft)SurfaceLDA (ft)
08200080GRASS
26200080GRASS

Airport contact information

Address: Crystal Lake United States

Satellite view of 2IA9